createdAt,value
2022-10-26T00:01:52.790Z,11.52
2022-10-26T00:04:55.037Z,11.57
2022-10-26T00:07:57.246Z,12.07
2022-10-26T00:10:59.460Z,10.90
2022-10-26T00:14:01.574Z,10.85
2022-10-26T00:17:03.955Z,12.15
2022-10-26T00:20:06.607Z,11.67
2022-10-26T00:23:08.802Z,11.32
2022-10-26T00:26:11.325Z,10.35
2022-10-26T00:29:13.500Z,9.63
2022-10-26T00:32:15.702Z,10.93
2022-10-26T00:35:24.124Z,11.00
2022-10-26T00:38:31.180Z,11.60
2022-10-26T00:41:34.607Z,13.35
2022-10-26T00:44:56.744Z,11.80
2022-10-26T00:48:03.547Z,12.70
2022-10-26T00:51:15.908Z,10.93
2022-10-26T00:54:19.121Z,11.13
2022-10-26T00:57:21.544Z,10.60
2022-10-26T01:00:23.756Z,10.45
2022-10-26T01:03:28.045Z,10.38
2022-10-26T01:06:31.599Z,10.70
2022-10-26T01:09:34.167Z,10.90
2022-10-26T01:12:36.972Z,9.93
2022-10-26T01:15:49.192Z,10.35
2022-10-26T01:19:07.371Z,10.45
2022-10-26T01:22:25.866Z,10.10
2022-10-26T01:26:04.927Z,10.07
2022-10-26T01:29:07.036Z,11.02
2022-10-26T01:32:13.561Z,10.65
2022-10-26T01:35:45.885Z,9.68
2022-10-26T01:39:05.829Z,9.73
2022-10-26T01:42:09.932Z,9.77
2022-10-26T01:45:12.928Z,11.38
2022-10-26T01:48:18.268Z,10.55
2022-10-26T01:51:21.415Z,9.68
2022-10-26T01:54:23.585Z,9.60
2022-10-26T01:57:25.795Z,9.95
2022-10-26T02:00:28.968Z,10.38
2022-10-26T02:04:06.613Z,9.32
2022-10-26T02:07:30.423Z,9.48
2022-10-26T02:10:46.526Z,8.60
2022-10-26T02:14:18.186Z,8.63
2022-10-26T02:17:28.694Z,8.85
2022-10-26T02:20:36.172Z,8.68
2022-10-26T02:23:41.584Z,9.43
2022-10-26T02:26:46.563Z,8.87
2022-10-26T02:29:49.525Z,9.80
2022-10-26T02:32:54.304Z,9.30
2022-10-26T02:35:59.229Z,8.95
2022-10-26T02:39:03.951Z,9.07
2022-10-26T02:42:07.335Z,9.23
2022-10-26T02:45:17.082Z,8.90
2022-10-26T02:48:19.618Z,9.60
2022-10-26T02:52:15.560Z,8.60
2022-10-26T02:55:26.227Z,8.48
2022-10-26T02:58:30.707Z,7.87
2022-10-26T03:01:34.031Z,9.43
2022-10-26T03:04:36.359Z,9.38
2022-10-26T03:07:38.552Z,9.15
2022-10-26T03:10:44.946Z,9.18
2022-10-26T03:13:47.358Z,9.03
2022-10-26T03:19:56.723Z,9.95
2022-10-26T03:22:58.931Z,10.18
2022-10-26T03:26:01.206Z,8.65
2022-10-26T03:29:03.419Z,9.37
2022-10-26T03:32:06.033Z,9.07
2022-10-26T03:35:08.573Z,8.68
2022-10-26T03:38:15.162Z,9.30
2022-10-26T03:41:18.242Z,9.20
2022-10-26T03:44:20.392Z,9.23
2022-10-26T03:47:22.588Z,8.52
2022-10-26T03:50:25.050Z,9.05
2022-10-26T03:53:27.539Z,9.00
2022-10-26T03:56:29.701Z,8.57
2022-10-26T03:59:32.404Z,9.17
2022-10-26T04:02:35.395Z,9.07
2022-10-26T04:05:38.488Z,8.80
2022-10-26T04:08:41.483Z,8.35
2022-10-26T04:11:44.572Z,9.32
2022-10-26T04:14:46.903Z,9.27
2022-10-26T04:17:49.595Z,7.90
2022-10-26T04:20:51.924Z,8.98
2022-10-26T04:23:54.125Z,9.50
2022-10-26T04:26:56.224Z,10.02
2022-10-26T04:29:58.829Z,10.03
2022-10-26T04:33:01.043Z,10.68
2022-10-26T04:36:03.333Z,9.15
2022-10-26T04:39:05.503Z,10.10
2022-10-26T04:42:07.641Z,10.13
2022-10-26T04:45:10.542Z,9.83
2022-10-26T04:48:13.824Z,9.93
2022-10-26T04:51:16.213Z,8.80
2022-10-26T04:54:18.350Z,8.52
2022-10-26T04:57:20.870Z,9.15
2022-10-26T05:00:23.267Z,9.43
2022-10-26T05:03:25.426Z,8.90
2022-10-26T05:06:27.627Z,9.13
2022-10-26T05:09:29.777Z,10.52
2022-10-26T05:12:32.072Z,11.70
2022-10-26T05:15:34.244Z,12.40
2022-10-26T05:18:36.386Z,13.38
2022-10-26T05:21:38.833Z,11.43
2022-10-26T05:24:40.996Z,10.95
2022-10-26T05:27:43.107Z,11.85
2022-10-26T05:30:46.077Z,11.47
2022-10-26T05:33:51.807Z,12.55
2022-10-26T05:36:54.572Z,12.40
2022-10-26T05:39:56.689Z,13.73
2022-10-26T05:43:02.335Z,13.18
2022-10-26T05:46:04.690Z,14.00
2022-10-26T05:49:06.841Z,14.00
2022-10-26T05:52:09.163Z,14.10
2022-10-26T05:55:14.107Z,14.50
2022-10-26T05:58:16.710Z,17.13
2022-10-26T06:01:28.825Z,16.63
2022-10-26T06:04:39.006Z,15.88
2022-10-26T06:07:41.581Z,14.23
2022-10-26T06:10:43.982Z,10.45
2022-10-26T06:13:46.422Z,9.43
2022-10-26T06:17:27.119Z,7.83
2022-10-26T06:20:52.791Z,8.27
2022-10-26T06:23:58.852Z,7.35
2022-10-26T06:27:23.755Z,7.18
2022-10-26T06:30:26.826Z,7.57
2022-10-26T06:33:30.492Z,6.53
2022-10-26T06:36:33.500Z,6.65
2022-10-26T06:39:36.528Z,7.25
2022-10-26T06:42:39.436Z,6.80
2022-10-26T06:45:45.684Z,7.00
2022-10-26T06:48:54.549Z,6.77
2022-10-26T06:52:04.196Z,7.55
2022-10-26T06:55:14.355Z,7.65
2022-10-26T06:58:20.213Z,8.05
2022-10-26T07:01:23.469Z,8.75
2022-10-26T07:04:26.297Z,8.10
2022-10-26T07:07:30.803Z,8.68
2022-10-26T07:10:35.163Z,8.15
2022-10-26T07:13:37.267Z,8.10
2022-10-26T07:16:39.426Z,8.23
2022-10-26T07:19:42.947Z,9.10
2022-10-26T07:22:45.131Z,9.30
2022-10-26T07:25:47.238Z,9.38
2022-10-26T07:28:50.422Z,8.65
2022-10-26T07:34:56.582Z,8.50
2022-10-26T07:37:59.455Z,9.73
2022-10-26T07:41:02.114Z,9.13
2022-10-26T07:44:04.265Z,10.02
2022-10-26T07:47:06.383Z,9.68
2022-10-26T07:50:09.482Z,9.97
2022-10-26T07:53:12.471Z,10.40
2022-10-26T07:56:15.470Z,9.95
2022-10-26T07:59:18.662Z,10.45
2022-10-26T08:02:21.046Z,11.10
2022-10-26T08:05:23.381Z,11.23
2022-10-26T08:08:25.544Z,11.20
2022-10-26T08:11:29.708Z,11.30
2022-10-26T08:14:31.849Z,11.57
2022-10-26T08:17:34.701Z,14.63
2022-10-26T08:20:37.796Z,12.30
2022-10-26T08:23:40.794Z,12.02
2022-10-26T08:26:43.227Z,13.65
2022-10-26T08:29:45.367Z,13.38
2022-10-26T08:32:48.186Z,13.18
2022-10-26T08:35:56.480Z,12.50
2022-10-26T08:42:33.060Z,12.52
2022-10-26T08:45:40.497Z,11.95
2022-10-26T08:48:48.488Z,12.32
2022-10-26T08:51:52.643Z,13.13
2022-10-26T08:54:56.820Z,12.90
2022-10-26T08:58:01.898Z,13.27
2022-10-26T09:01:05.504Z,12.82
2022-10-26T09:04:11.996Z,13.13
2022-10-26T09:07:41.939Z,13.17
2022-10-26T09:10:56.064Z,14.45
2022-10-26T09:14:12.728Z,14.23
2022-10-26T09:17:32.038Z,13.82
2022-10-26T09:21:05.060Z,13.45
2022-10-26T09:24:15.389Z,13.43
2022-10-26T09:27:29.967Z,13.80
2022-10-26T09:30:32.580Z,13.65
2022-10-26T09:33:37.643Z,13.60
2022-10-26T09:36:40.633Z,13.43
2022-10-26T09:39:52.019Z,13.50
2022-10-26T09:43:13.954Z,13.52
2022-10-26T09:46:21.861Z,12.57
2022-10-26T09:49:34.380Z,12.45
2022-10-26T09:52:37.264Z,12.55
2022-10-26T09:55:44.572Z,11.17
2022-10-26T09:59:00.040Z,9.98
2022-10-26T10:02:35.287Z,7.90
2022-10-26T10:05:53.216Z,7.55
2022-10-26T10:09:12.715Z,6.18
2022-10-26T10:12:20.739Z,6.33
2022-10-26T10:15:25.466Z,5.53
2022-10-26T10:18:27.877Z,5.20
2022-10-26T10:21:48.721Z,5.45
2022-10-26T10:24:58.023Z,5.00
2022-10-26T10:28:00.151Z,5.47
2022-10-26T10:31:05.133Z,5.43
2022-10-26T10:34:17.765Z,5.25
2022-10-26T10:37:46.993Z,5.65
2022-10-26T10:40:51.549Z,6.18
2022-10-26T10:44:16.163Z,5.63
2022-10-26T10:47:37.551Z,6.28
2022-10-26T10:50:53.181Z,5.60
2022-10-26T10:53:57.301Z,5.40
2022-10-26T10:57:10.828Z,5.40
2022-10-26T11:00:13.925Z,4.60
2022-10-26T11:03:23.327Z,5.40
2022-10-26T11:06:29.440Z,4.85
2022-10-26T11:09:34.681Z,4.63
2022-10-26T11:12:45.071Z,4.70
2022-10-26T11:15:51.111Z,4.60
2022-10-26T11:19:06.593Z,4.60
2022-10-26T11:22:15.115Z,4.03
2022-10-26T11:25:28.852Z,4.28
2022-10-26T11:28:52.739Z,4.35
2022-10-26T11:32:08.263Z,4.60
2022-10-26T11:35:33.288Z,4.65
2022-10-26T11:38:46.583Z,4.78
2022-10-26T11:42:14.775Z,4.82
2022-10-26T11:45:44.697Z,4.70
2022-10-26T11:48:56.291Z,4.80
2022-10-26T11:52:18.951Z,5.60
2022-10-26T11:55:23.065Z,4.70
2022-10-26T11:58:29.535Z,5.43
2022-10-26T12:01:34.210Z,5.32
2022-10-26T12:04:39.000Z,4.67
2022-10-26T12:07:46.086Z,4.05
2022-10-26T12:10:53.379Z,4.32
2022-10-26T12:14:23.807Z,4.22
2022-10-26T12:17:40.434Z,4.57
2022-10-26T12:20:56.863Z,4.33
2022-10-26T12:24:00.461Z,4.35
2022-10-26T12:27:05.123Z,4.13
2022-10-26T12:30:19.427Z,4.70
2022-10-26T12:33:30.919Z,4.82
2022-10-26T12:36:57.507Z,4.77
2022-10-26T12:40:34.084Z,5.15
2022-10-26T12:43:39.376Z,4.97
2022-10-26T12:46:43.356Z,4.90
2022-10-26T12:50:07.645Z,5.07
2022-10-26T12:53:15.542Z,5.70
2022-10-26T12:56:20.373Z,5.57
2022-10-26T12:59:45.843Z,5.75
2022-10-26T13:02:53.881Z,6.35
2022-10-26T13:06:10.768Z,5.63
2022-10-26T13:09:25.141Z,5.57
2022-10-26T13:12:28.617Z,5.85
2022-10-26T13:15:39.879Z,5.60
2022-10-26T13:18:43.329Z,5.68
2022-10-26T13:21:46.787Z,5.75
2022-10-26T13:24:52.208Z,5.93
2022-10-26T13:28:03.847Z,5.90
2022-10-26T13:31:24.149Z,6.40
2022-10-26T13:34:31.677Z,5.93
2022-10-26T13:37:34.912Z,6.22
2022-10-26T13:40:38.309Z,6.60
2022-10-26T13:43:40.922Z,6.45
2022-10-26T13:46:52.194Z,7.30
2022-10-26T13:49:56.996Z,6.78
2022-10-26T13:53:16.897Z,6.88
2022-10-26T13:56:21.593Z,7.03
2022-10-26T13:59:25.695Z,7.10
2022-10-26T14:02:30.542Z,7.20
2022-10-26T14:05:32.764Z,7.70
2022-10-26T14:08:35.855Z,8.02
2022-10-26T14:11:54.396Z,7.80
2022-10-26T14:15:10.553Z,7.50
2022-10-26T14:18:21.845Z,7.85
2022-10-26T14:21:24.067Z,7.05
2022-10-26T14:24:46.203Z,7.68
2022-10-26T14:27:49.884Z,7.43
2022-10-26T14:30:52.513Z,7.85
2022-10-26T14:33:55.793Z,7.85
2022-10-26T14:37:03.242Z,9.48
2022-10-26T14:40:06.749Z,8.38
2022-10-26T14:43:16.419Z,7.97
2022-10-26T14:46:19.699Z,8.13
2022-10-26T14:49:25.769Z,7.93
2022-10-26T14:52:31.181Z,7.68
2022-10-26T14:55:46.587Z,8.93
2022-10-26T14:58:48.899Z,10.03
2022-10-26T15:02:10.418Z,9.00
2022-10-26T15:05:24.516Z,8.55
2022-10-26T15:08:55.871Z,8.98
2022-10-26T15:11:59.446Z,9.02
2022-10-26T15:18:29.566Z,9.35
2022-10-26T15:21:42.863Z,9.57
2022-10-26T15:24:45.710Z,8.85
2022-10-26T15:27:48.417Z,9.60
2022-10-26T15:31:25.414Z,9.83
2022-10-26T15:34:27.611Z,9.43
2022-10-26T15:37:29.874Z,9.55
2022-10-26T15:40:32.219Z,9.85
2022-10-26T15:43:34.399Z,9.40
2022-10-26T15:46:38.757Z,9.70
2022-10-26T15:49:41.531Z,10.20
2022-10-26T15:52:46.782Z,10.18
2022-10-26T15:55:52.882Z,10.13
2022-10-26T15:58:55.242Z,11.20
2022-10-26T16:01:58.191Z,11.37
2022-10-26T16:05:00.407Z,10.55
2022-10-26T16:08:03.350Z,10.27
2022-10-26T16:11:05.658Z,10.13
2022-10-26T16:14:10.566Z,10.90
2022-10-26T16:17:13.172Z,10.60
2022-10-26T16:20:20.072Z,13.43
2022-10-26T16:23:22.285Z,12.60
2022-10-26T16:26:24.555Z,13.23
2022-10-26T16:29:26.845Z,13.20
2022-10-26T16:32:29.469Z,13.73
2022-10-26T16:35:32.153Z,12.63
2022-10-26T16:38:34.729Z,12.70
2022-10-26T16:41:37.002Z,11.60
2022-10-26T16:44:40.052Z,12.18
2022-10-26T16:47:42.835Z,13.20
2022-10-26T16:50:45.131Z,14.80
2022-10-26T16:53:48.723Z,14.30
2022-10-26T16:56:51.641Z,14.70
2022-10-26T16:59:54.175Z,13.05
2022-10-26T17:03:02.524Z,15.20
2022-10-26T17:06:07.367Z,16.73
2022-10-26T17:09:10.233Z,18.02
2022-10-26T17:12:12.822Z,19.83
2022-10-26T17:15:17.391Z,18.60
2022-10-26T17:18:22.708Z,21.33
2022-10-26T17:21:35.363Z,21.60
2022-10-26T17:24:38.408Z,20.90
2022-10-26T17:27:44.904Z,20.92
2022-10-26T17:30:49.979Z,21.60
2022-10-26T17:33:52.774Z,21.43
2022-10-26T17:36:57.713Z,22.05
2022-10-26T17:40:00.494Z,22.05
2022-10-26T17:43:03.183Z,19.67
2022-10-26T17:46:08.773Z,20.25
2022-10-26T17:49:11.337Z,22.93
2022-10-26T17:52:13.959Z,22.88
2022-10-26T17:55:16.714Z,21.30
2022-10-26T17:58:19.443Z,19.63
2022-10-26T18:01:22.424Z,20.52
2022-10-26T18:04:25.924Z,20.47
2022-10-26T18:07:30.123Z,20.63
2022-10-26T18:10:37.951Z,21.70
2022-10-26T18:13:41.263Z,20.67
2022-10-26T18:16:44.285Z,19.13
2022-10-26T18:19:47.253Z,21.37
2022-10-26T18:22:50.416Z,21.90
2022-10-26T18:26:22.523Z,20.85
2022-10-26T18:29:25.130Z,20.25
2022-10-26T18:32:27.744Z,19.63
2022-10-26T18:35:32.353Z,20.10
2022-10-26T18:38:35.860Z,20.48
2022-10-26T18:41:39.313Z,21.35
2022-10-26T18:44:42.009Z,24.23
2022-10-26T18:47:44.327Z,25.73
2022-10-26T18:50:47.204Z,23.67
2022-10-26T18:53:50.485Z,23.08
2022-10-26T18:56:53.612Z,21.17
2022-10-26T18:59:56.343Z,22.70
2022-10-26T19:03:00.438Z,24.67
2022-10-26T19:06:09.900Z,24.57
2022-10-26T19:09:12.748Z,29.15
2022-10-26T19:12:15.709Z,31.13
2022-10-26T19:15:18.365Z,36.28
2022-10-26T19:18:23.947Z,29.42
2022-10-26T19:21:31.578Z,27.77
2022-10-26T19:24:34.791Z,26.30
2022-10-26T19:27:37.597Z,26.40
2022-10-26T19:30:49.320Z,25.50
2022-10-26T19:33:52.631Z,27.80
2022-10-26T19:36:55.274Z,29.70
2022-10-26T19:39:58.185Z,27.45
2022-10-26T19:43:00.939Z,26.48
2022-10-26T19:46:08.314Z,28.25
2022-10-26T19:49:14.185Z,26.45
2022-10-26T19:52:20.167Z,26.60
2022-10-26T19:55:22.582Z,27.05
2022-10-26T19:58:26.965Z,42.03
2022-10-26T20:01:29.808Z,31.17
2022-10-26T20:04:32.756Z,29.63
2022-10-26T20:07:35.631Z,53.30
2022-10-26T20:10:43.194Z,42.92
2022-10-26T20:13:47.410Z,55.08
2022-10-26T20:16:57.123Z,31.52
2022-10-26T20:20:00.728Z,26.58
2022-10-26T20:23:06.727Z,26.53
2022-10-26T20:26:12.816Z,24.45
2022-10-26T20:29:18.745Z,26.42
2022-10-26T20:32:22.870Z,25.30
2022-10-26T20:35:26.775Z,26.92
2022-10-26T20:38:30.996Z,26.10
2022-10-26T20:41:34.337Z,24.70
2022-10-26T20:44:44.339Z,25.75
2022-10-26T20:47:47.245Z,25.77
2022-10-26T20:50:56.118Z,27.63
2022-10-26T20:54:26.719Z,28.10
2022-10-26T20:57:32.127Z,30.77
2022-10-26T21:00:41.451Z,29.35
2022-10-26T21:03:43.679Z,31.27
2022-10-26T21:06:45.842Z,25.38
2022-10-26T21:09:48.163Z,25.33
2022-10-26T21:12:50.572Z,27.30
2022-10-26T21:15:52.970Z,25.30
2022-10-26T21:18:55.190Z,27.73
2022-10-26T21:21:57.345Z,27.92
2022-10-26T21:24:59.497Z,31.50
2022-10-26T21:28:01.653Z,26.35
2022-10-26T21:31:05.305Z,25.90
2022-10-26T21:34:07.475Z,25.80
2022-10-26T21:37:09.660Z,24.20
2022-10-26T21:40:12.657Z,24.17
2022-10-26T21:43:14.949Z,27.52
2022-10-26T21:46:18.961Z,25.00
2022-10-26T21:49:21.901Z,28.50
2022-10-26T21:52:25.305Z,33.33
2022-10-26T21:55:28.705Z,31.43
2022-10-26T21:58:31.895Z,45.63
2022-10-26T22:01:35.101Z,35.15
2022-10-26T22:04:39.007Z,27.92
2022-10-26T22:07:42.099Z,29.55
2022-10-26T22:10:44.526Z,21.93
2022-10-26T22:13:47.605Z,21.95
2022-10-26T22:16:49.807Z,22.65
2022-10-26T22:19:51.984Z,21.10
2022-10-26T22:22:54.196Z,20.50
2022-10-26T22:26:01.447Z,24.10
2022-10-26T22:29:04.373Z,22.85
2022-10-26T22:32:06.824Z,21.80
2022-10-26T22:35:28.477Z,20.77
2022-10-26T22:38:31.416Z,17.67
2022-10-26T22:41:33.609Z,18.00
2022-10-26T22:44:35.940Z,17.75
2022-10-26T22:47:38.157Z,17.88
2022-10-26T22:50:40.307Z,18.98
2022-10-26T22:53:42.809Z,20.50
2022-10-26T22:56:44.956Z,19.57
2022-10-26T22:59:47.120Z,18.38
2022-10-26T23:02:49.535Z,24.38
2022-10-26T23:05:51.701Z,19.13
2022-10-26T23:08:54.027Z,18.00
2022-10-26T23:11:56.182Z,18.20
2022-10-26T23:14:58.341Z,19.60
2022-10-26T23:18:00.505Z,16.38
2022-10-26T23:21:06.944Z,23.35
2022-10-26T23:24:09.333Z,18.50
2022-10-26T23:27:11.531Z,17.53
2022-10-26T23:30:13.845Z,17.15
2022-10-26T23:33:16.086Z,15.85
2022-10-26T23:36:18.560Z,17.55
2022-10-26T23:39:20.702Z,18.70
2022-10-26T23:42:23.459Z,19.47
2022-10-26T23:45:25.856Z,18.58
2022-10-26T23:48:28.431Z,17.17
2022-10-26T23:51:30.553Z,17.75
2022-10-26T23:54:33.015Z,18.63
2022-10-26T23:57:35.158Z,18.47
